Flight Track Log - Related Links

Times and Time Zones

All times are in EDT time to prevent confusion due to time zone crossing. See the EJA638P flight status page for this flight to view local times or setup timezone preferences in your user account.

Time Position Orientation Groundspeed Altitude Reporting Facility
EDT Latitude Longitude Course Direction KTS MPH feet Rate Location/Type
Sat 02:52:21 PM 41.3103 -95.9011 North 142 163 1,800  Level Minneapolis Center
Sat 02:53:12 PM 41.3497 -95.8942 North 235 270 3,300 2,283 Climbing Minneapolis Center
Sat 02:54:14 PM 41.3617 -95.8136 79° East 239 275 6,100 2,732 Climbing Minneapolis Center
Sat 02:55:15 PM 41.3667 -95.7203 86° East 250 288 8,900 2,195 Climbing Minneapolis Center
Sat 02:56:17 PM 41.3783 -95.6192 81° East 263 303 10,600 1,707 Climbing Minneapolis Center
Sat 02:57:18 PM 41.3900 -95.5106 82° East 279 321 12,400 1,610 Climbing Minneapolis Center
Sat 02:58:20 PM 41.4019 -95.3956 82° East 298 343 13,900 1,694 Climbing Minneapolis Center
Sat 02:59:22 PM 41.4178 -95.2450 82° East 335 386 15,900 1,790 Climbing Minneapolis Center
Sat 03:00:24 PM 41.4300 -95.1203 83° East 339 390 17,600 1,548 Climbing Minneapolis Center
Sat 03:01:26 PM 41.4439 -94.9936 82° East 343 395 19,100 1,512 Climbing Minneapolis Center
Sat 03:02:27 PM 41.4569 -94.8639 82° East 350 403 20,700 1,492 Climbing Minneapolis Center
Sat 03:04:35 PM 41.4867 -94.5839 82° East 364 419 23,800 1,395 Climbing Chicago Center
Sat 03:05:32 PM 41.4981 -94.4594 83° East 371 427 25,000 1,322 Climbing Minneapolis Center
Sat 03:06:33 PM 41.5111 -94.3233 83° East 370 426 26,400 1,415 Climbing Minneapolis Center
Sat 03:07:35 PM 41.5236 -94.1778 83° East 373 429 27,900 1,415 Climbing Minneapolis Center
Sat 03:08:36 PM 41.5375 -94.0414 82° East 372 428 29,300 1,463 Climbing Minneapolis Center
Sat 03:09:38 PM 41.5500 -93.9047 83° East 373 429 30,900 1,659 Climbing Minneapolis Center
Sat 03:10:39 PM 41.5650 -93.7433 83° East 368 423 32,700 1,610 Climbing Minneapolis Center
Sat 03:11:41 PM 41.5783 -93.6100 82° East 365 420 34,200 1,463 Climbing Minneapolis Center
Sat 03:12:42 PM 41.5911 -93.4758 83° East 365 420 35,700 1,415 Climbing Minneapolis Center
Sat 03:13:44 PM 41.6017 -93.3444 84° East 362 417 37,100 1,415 Climbing Minneapolis Center
Sat 03:14:45 PM 41.6136 -93.2153 83° East 355 409 38,600 1,415 Climbing Minneapolis Center
Sat 03:15:47 PM 41.6250 -93.0886 83° East 350 403 40,000 1,073 Climbing Minneapolis Center
Sat 03:16:48 PM 41.6350 -92.9636 84° East 344 396 40,800 492 Climbing Minneapolis Center
Sat 03:17:49 PM 41.6489 -92.8092 83° East 347 399 41,000 98 Climbing Minneapolis Center
Sat 03:18:51 PM 41.6600 -92.6747 84° East 358 412 41,000  Level Minneapolis Center
Sat 03:19:52 PM 41.6719 -92.5317 84° East 375 432 41,000  Level Minneapolis Center
Sat 03:20:53 PM 41.6842 -92.3817 84° East 387 445 41,000  Level Minneapolis Center
Sat 03:21:55 PM 41.6956 -92.2364 84° East 394 453 41,000  Level Minneapolis Center
Sat 03:22:56 PM 41.7072 -92.0908 84° East 397 457 41,000  Level Minneapolis Center
Sat 03:23:11 PM 41.7089 -92.0594 86° East 397 457 41,000  Level Chicago Center
Sat 03:24:12 PM 41.7200 -91.9150 84° East 396 456 41,000  Level Chicago Center
Sat 03:25:14 PM 41.7325 -91.7422 84° East 394 453 41,000  Level Chicago Center
Sat 03:26:16 PM 41.7436 -91.5956 84° East 396 456 41,000  Level Chicago Center
Sat 03:27:18 PM 41.7550 -91.4514 84° East 396 456 41,000  Level Chicago Center
Sat 03:28:20 PM 41.7642 -91.3086 85° East 392 451 41,000  Level Chicago Center
Sat 03:29:22 PM 41.7744 -91.1664 84° East 389 448 41,000  Level Chicago Center
Sat 03:30:23 PM 41.7856 -90.9944 85° East 391 450 41,000  Level Chicago Center
Sat 03:31:25 PM 41.7958 -90.8506 84° East 391 450 41,000  Level Chicago Center
Sat 03:32:27 PM 41.8058 -90.7067 85° East 393 452 41,000  Level Chicago Center
Sat 03:33:29 PM 41.8147 -90.5633 85° East 391 450 41,000  Level Chicago Center
Sat 03:34:31 PM 41.8231 -90.4194 86° East 392 451 41,000  Level Chicago Center
Sat 03:35:33 PM 41.8344 -90.2467 85° East 391 450 41,000  Level Chicago Center
Sat 03:36:34 PM 41.8433 -90.1047 85° East 387 445 41,000  Level Chicago Center
Sat 03:37:36 PM 41.8514 -89.9611 86° East 389 448 41,000  Level Chicago Center
Sat 03:38:38 PM 41.8600 -89.8219 85° East 388 447 41,000  Level Chicago Center
Sat 03:39:40 PM 41.8678 -89.6497 86° East 389 448 41,000  Level Chicago Center
Sat 03:40:41 PM 41.8775 -89.5061 85° East 389 448 41,000  Level Chicago Center
Sat 03:41:43 PM 41.8839 -89.3619 87° East 390 449 41,000  Level Chicago Center
Sat 03:42:45 PM 41.8917 -89.2167 86° East 389 448 41,000  Level Chicago Center
Sat 03:43:47 PM 41.9003 -89.0694 85° East 395 455 41,000  Level Chicago Center
Sat 03:44:48 PM 41.9081 -88.9239 86° East 392 451 41,000  Level Chicago Center
Sat 03:45:50 PM 41.9150 -88.7772 86° East 395 455 41,000  Level Chicago Center
Sat 03:46:52 PM 41.9228 -88.6014 87° East 393 452 41,000  Level Chicago Center
Sat 03:47:54 PM 41.9306 -88.4531 86° East 397 457 41,000  Level Chicago Center
Sat 03:48:55 PM 41.9364 -88.3067 87° East 394 453 41,000  Level Chicago Center
Sat 03:49:57 PM 41.9431 -88.1581 86° East 396 456 41,000  Level Chicago Center
Sat 03:50:59 PM 41.9489 -88.0083 87° East 398 458 41,000  Level Chicago Center
Sat 03:52:00 PM 41.9542 -87.8611 87° East 396 456 41,000  Level Chicago Center
Sat 03:53:02 PM 41.9614 -87.7125 86° East 398 458 41,000  Level Chicago Center
Sat 03:54:04 PM 41.9669 -87.5344 88° East 397 457 41,000  Level Chicago Center
Sat 03:55:06 PM 41.9731 -87.3836 87° East 403 464 41,000  Level Chicago Center
Sat 03:56:08 PM 41.9767 -87.2333 88° East 403 464 41,000  Level Chicago Center
Sat 03:57:09 PM 41.9833 -87.0856 86° East 399 459 41,000  Level Chicago Center
Sat 03:58:11 PM 41.9869 -86.9364 88° East 400 460 41,000  Level Chicago Center
Sat 03:59:13 PM 41.9917 -86.7886 87° East 399 459 41,000  Level Chicago Center
Sat 04:00:15 PM 41.9958 -86.6333 88° East 397 457 41,000  Level Chicago Center
Sat 04:01:17 PM 42.0017 -86.4853 87° East 397 457 41,000  Level Chicago Center
Sat 04:02:18 PM 42.0050 -86.3361 88° East 399 459 41,000  Level Chicago Center
Sat 04:03:20 PM 42.0097 -86.1581 88° East 398 458 41,000  Level Chicago Center
Sat 04:04:22 PM 42.0131 -86.0083 88° East 399 459 41,000  Level Chicago Center
Sat 04:05:24 PM 42.0183 -85.8728 87° East 396 456 41,000  Level Chicago Center
Sat 04:06:26 PM 42.0211 -85.7253 88° East 397 457 41,000  Level Chicago Center
Sat 04:07:27 PM 42.0253 -85.5514 88° East 393 452 41,000  Level Chicago Center
Sat 04:08:29 PM 42.0281 -85.4067 88° East 391 450 41,000  Level Chicago Center
Sat 04:09:12 PM 42.0319 -85.3000 87° East 383 441 41,000  Level Cleveland Center
Sat 04:10:12 PM 42.0356 -85.1547 88° East 383 441 41,000  Level Cleveland Center
Sat 04:11:12 PM 42.0372 -85.0094 89° East 383 441 41,000  Level Cleveland Center
Sat 04:12:12 PM 42.0406 -84.8669 88° East 383 441 41,000  Level Cleveland Center
Sat 04:13:12 PM 42.0542 -84.7197 83° East 383 441 41,000  Level Cleveland Center
Sat 04:14:12 PM 42.0658 -84.5719 84° East 383 441 41,000  Level Cleveland Center
Sat 04:15:12 PM 42.0811 -84.4247 82° East 388 447 41,000  Level Cleveland Center
Sat 04:16:12 PM 42.0872 -84.3019 86° East 388 447 41,000  Level Cleveland Center
Sat 04:17:12 PM 42.1006 -84.1489 83° East 388 447 41,000  Level Cleveland Center
Sat 04:18:12 PM 42.1133 -83.9983 83° East 388 447 41,000  Level Cleveland Center
Sat 04:19:12 PM 42.1261 -83.8478 83° East 394 453 41,000  Level Cleveland Center
Sat 04:20:12 PM 42.1364 -83.7025 85° East 394 453 41,000  Level Cleveland Center
Sat 04:21:12 PM 42.1492 -83.5381 84° East 402 463 41,000  Level Cleveland Center
Sat 04:22:12 PM 42.1614 -83.3844 84° East 402 463 41,000  Level Cleveland Center
Sat 04:23:12 PM 42.1731 -83.2392 84° East 396 456 41,000  Level Cleveland Center
Sat 04:24:12 PM 42.1825 -83.1022 85° East 401 461 41,000  Level Cleveland Center
Sat 04:25:12 PM 42.1939 -82.9514 84° East 401 461 41,000  Level Cleveland Center
Sat 04:26:12 PM 42.2078 -82.7867 83° East 406 467 41,000  Level Cleveland Center
Sat 04:27:12 PM 42.2189 -82.6383 84° East 406 467 41,000  Level Cleveland Center
Sat 04:28:12 PM 42.2278 -82.4872 85° East 406 467 41,000  Level Cleveland Center
Sat 04:29:12 PM 42.2383 -82.3389 84° East 406 467 41,000  Level Cleveland Center
Sat 04:30:12 PM 42.2489 -82.1847 85° East 406 467 41,000  Level Cleveland Center
Sat 04:31:12 PM 42.2633 -82.0336 83° East 406 467 41,000  Level Cleveland Center
Sat 04:32:12 PM 42.2714 -81.8822 86° East 406 467 41,000  Level Cleveland Center
Sat 04:33:12 PM 42.2814 -81.7281 85° East 406 467 41,000  Level Cleveland Center
Sat 04:34:12 PM 42.2911 -81.5767 85° East 406 467 41,000  Level Cleveland Center
Sat 04:35:12 PM 42.3008 -81.4225 85° East 400 460 41,000  Level Cleveland Center
Sat 04:36:12 PM 42.3081 -81.2767 86° East 405 466 41,000  Level Cleveland Center
Sat 04:37:12 PM 42.3172 -81.1364 85° East 411 473 41,000  Level Cleveland Center
Sat 04:38:12 PM 42.3261 -80.9819 85° East 405 466 41,000  Level Cleveland Center
Sat 04:39:12 PM 42.3350 -80.8358 85° East 405 466 41,000  Level Cleveland Center
Sat 04:40:12 PM 42.3414 -80.6814 87° East 405 466 41,000  Level Cleveland Center
Sat 04:41:12 PM 42.3519 -80.5325 84° East 399 459 41,000  Level Cleveland Center
Sat 04:42:12 PM 42.3600 -80.3725 86° East 406 467 41,000  Level Cleveland Center
Sat 04:43:12 PM 42.3678 -80.2067 86° East 406 467 41,000  Level Cleveland Center
Sat 04:44:12 PM 42.3756 -80.0547 86° East 406 467 41,000  Level Cleveland Center
Sat 04:45:12 PM 42.3831 -79.9000 86° East 406 467 41,000  Level Cleveland Center
Sat 04:46:12 PM 42.3883 -79.7511 87° East 406 467 41,000  Level Cleveland Center
Sat 04:47:12 PM 42.3956 -79.5992 86° East 406 467 41,000  Level Cleveland Center
Sat 04:48:12 PM 42.4044 -79.4417 86° East 406 467 41,000  Level Cleveland Center
Sat 04:49:12 PM 42.4114 -79.2867 86° East 406 467 41,000  Level Cleveland Center
Sat 04:50:12 PM 42.4158 -79.1347 88° East 406 467 41,000  Level Cleveland Center
Sat 04:51:12 PM 42.4242 -78.9800 86° East 406 467 41,000  Level Cleveland Center
Sat 04:52:12 PM 42.4303 -78.8392 87° East 406 467 41,000  Level Cleveland Center
Sat 04:53:12 PM 42.4342 -78.6842 88° East 406 467 41,000  Level Cleveland Center
Sat 04:54:12 PM 42.4419 -78.5264 86° East 406 467 41,000  Level Cleveland Center
Sat 04:55:12 PM 42.4475 -78.3742 87° East 406 467 41,000  Level Cleveland Center
Sat 04:56:12 PM 42.4525 -78.2164 87° East 406 467 41,000  Level Cleveland Center
Sat 04:57:12 PM 42.4556 -78.0617 88° East 406 467 41,000  Level Cleveland Center
Sat 04:58:12 PM 42.4603 -77.9039 88° East 406 467 41,000  Level Cleveland Center
Sat 04:59:12 PM 42.4650 -77.7517 88° East 406 467 41,000 -150 Level Cleveland Center
Sat 05:00:12 PM 42.4694 -77.5964 88° East 406 467 40,700 -800 Descending Cleveland Center
Sat 05:01:12 PM 42.4736 -77.4414 88° East 406 467 39,400 -1,450 Descending Cleveland Center
Sat 05:02:12 PM 42.4778 -77.2864 88° East 406 467 37,800 -1,650 Descending Cleveland Center
Sat 05:03:12 PM 42.4817 -77.1314 88° East 406 467 36,100 -1,697 Descending Cleveland Center
Sat 05:04:44 PM 42.4883 -76.8922 88° East 421 484 33,500 -1,224 Descending Boston Center
Sat 05:05:44 PM 42.4900 -76.7375 89° East 416 479 33,000 -250 Descending Boston Center
Sat 05:06:44 PM 42.4939 -76.5800 88° East 416 479 33,000  Level Boston Center
Sat 05:07:44 PM 42.4867 -76.4244 94° East 416 479 33,000 -50 Level Boston Center
Sat 05:08:44 PM 42.4564 -76.2761 105° East 416 479 32,900 -650 Descending Boston Center
Sat 05:09:44 PM 42.4242 -76.1194 106° East 416 479 31,700 -1,350 Descending Boston Center
Sat 05:10:44 PM 42.3894 -75.9600 106° East 427 491 30,200 -1,500 Descending Boston Center
Sat 05:11:44 PM 42.3589 -75.8036 105° East 427 491 28,700 -1,900 Descending Boston Center
Sat 05:12:44 PM 42.3278 -75.6503 105° East 427 491 26,400 -1,950 Descending Boston Center
Sat 05:13:44 PM 42.2908 -75.4828 107° East 427 491 24,800 -1,900 Descending Boston Center
Sat 05:14:44 PM 42.2611 -75.3467 106° East 427 491 22,600 -2,050 Descending Boston Center
Sat 05:15:44 PM 42.2311 -75.2050 106° East 406 467 20,700 -1,850 Descending Boston Center
Sat 05:16:44 PM 42.2031 -75.0719 106° East 388 447 18,900 -1,350 Descending Boston Center
Sat 05:17:44 PM 42.1686 -74.9389 109° East 370 426 18,000 -450 Descending Boston Center
Sat 05:18:44 PM 42.1189 -74.8219 120° Southeast 365 420 18,000  Level Boston Center
Sat 05:19:44 PM 42.0694 -74.6969 118° Southeast 371 427 18,000  Level Boston Center
Sat 05:20:44 PM 42.0097 -74.5581 120° Southeast 381 438 18,000 -500 Level Boston Center
Sat 05:21:44 PM 41.9597 -74.4419 120° Southeast 381 438 17,000 -1,000 Descending Boston Center
Sat 05:22:44 PM 41.9097 -74.3203 119° Southeast 381 438 16,000 -500 Descending Boston Center
Sat 05:23:44 PM 41.8572 -74.2017 121° Southeast 368 423 16,000 -650 Level Boston Center
Sat 05:24:44 PM 41.8028 -74.0889 123° Southeast 368 423 14,700 -2,050 Descending Boston Center
Sat 05:25:44 PM 41.7458 -73.9844 126° Southeast 358 412 11,900 -2,050 Descending Boston Center
Sat 05:26:44 PM 41.6756 -73.9381 154° Southeast 333 383 10,600 -1,450 Descending Boston Center
Sat 05:27:44 PM 41.5861 -73.9250 174° South 298 343 9,000 -1,450 Descending Boston Center
Sat 05:28:44 PM 41.5175 -73.9150 174° South 292 336 7,700 -1,328 Descending Boston Center
Sat 05:29:46 PM 41.4333 -73.9000 172° South 278 320 6,300 -1,172 Descending New York TRACON
Sat 05:30:52 PM 41.3500 -73.8833 171° South 263 303 5,200 -912 Descending New York TRACON
Sat 05:31:51 PM 41.2833 -73.8667 169° South 237 273 4,400 -807 Descending New York TRACON
Sat 05:32:51 PM 41.2333 -73.8333 153° Southeast 230 265 3,600 -650 Descending New York TRACON
Sat 05:33:51 PM 41.1833 -73.8000 153° Southeast 201 231 3,100 -900 Descending New York TRACON
Sat 05:34:51 PM 41.1333 -73.7500 143° Southeast 184 212 1,800 -1,050 Descending New York TRACON
Sat 05:35:51 PM 41.1000 -73.7333 159° South 123 142 1,000 -800 Descending New York TRACON
Sat 05:37:00 PM 41.0669 -73.7076 252° West  Level Estimated
Sat 05:44:00 PM 41.0667 -73.7000 246° West  Level FlightAware Approximate

Login

Don't have an account? Register now (free) for customized features, flight alerts, and more!